sensor_id;sensor_type;location;lat;lon;timestamp;P1;durP1;ratioP1;P2;durP2;ratioP2
67065;SDS011;53978;43.846;25.952;2022-10-30T00:00:34;4.75;;;3.28;;
67065;SDS011;53978;43.846;25.952;2022-10-30T00:03:00;8.63;;;3.17;;
67065;SDS011;53978;43.846;25.952;2022-10-30T00:05:25;4.68;;;3.08;;
67065;SDS011;53978;43.846;25.952;2022-10-30T00:07:51;4.88;;;3.15;;
67065;SDS011;53978;43.846;25.952;2022-10-30T00:10:16;3.92;;;3.15;;
67065;SDS011;53978;43.846;25.952;2022-10-30T00:12:42;5.00;;;3.40;;
67065;SDS011;53978;43.846;25.952;2022-10-30T00:15:08;5.50;;;3.15;;
67065;SDS011;53978;43.846;25.952;2022-10-30T00:17:34;5.28;;;2.92;;
67065;SDS011;53978;43.846;25.952;2022-10-30T00:20:00;5.47;;;3.40;;
67065;SDS011;53978;43.846;25.952;2022-10-30T00:22:25;3.88;;;3.05;;
67065;SDS011;53978;43.846;25.952;2022-10-30T00:24:50;5.47;;;3.08;;
67065;SDS011;53978;43.846;25.952;2022-10-30T00:27:16;4.43;;;3.20;;
67065;SDS011;53978;43.846;25.952;2022-10-30T00:29:42;4.43;;;3.22;;
67065;SDS011;53978;43.846;25.952;2022-10-30T00:32:07;6.03;;;2.90;;
67065;SDS011;53978;43.846;25.952;2022-10-30T00:34:33;7.10;;;3.33;;
67065;SDS011;53978;43.846;25.952;2022-10-30T00:36:58;5.18;;;3.33;;
67065;SDS011;53978;43.846;25.952;2022-10-30T00:39:23;4.65;;;3.08;;
67065;SDS011;53978;43.846;25.952;2022-10-30T00:41:49;6.57;;;3.60;;
67065;SDS011;53978;43.846;25.952;2022-10-30T00:47:00;4.90;;;3.08;;
67065;SDS011;53978;43.846;25.952;2022-10-30T00:49:28;4.85;;;3.28;;
67065;SDS011;53978;43.846;25.952;2022-10-30T00:51:56;5.45;;;3.15;;
67065;SDS011;53978;43.846;25.952;2022-10-30T00:54:21;5.03;;;3.13;;
67065;SDS011;53978;43.846;25.952;2022-10-30T00:56:47;6.47;;;3.30;;
67065;SDS011;53978;43.846;25.952;2022-10-30T00:59:16;3.55;;;2.85;;
67065;SDS011;53978;43.846;25.952;2022-10-30T01:01:45;3.78;;;2.67;;
67065;SDS011;53978;43.846;25.952;2022-10-30T01:04:10;3.85;;;3.10;;
67065;SDS011;53978;43.846;25.952;2022-10-30T01:14:50;6.78;;;3.15;;
67065;SDS011;53978;43.846;25.952;2022-10-30T01:36:36;5.20;;;3.33;;
67065;SDS011;53978;43.846;25.952;2022-10-30T01:39:03;4.70;;;3.05;;
67065;SDS011;53978;43.846;25.952;2022-10-30T01:41:34;5.75;;;3.10;;
67065;SDS011;53978;43.846;25.952;2022-10-30T01:44:00;8.10;;;3.50;;
67065;SDS011;53978;43.846;25.952;2022-10-30T01:52:27;4.03;;;2.97;;
67065;SDS011;53978;43.846;25.952;2022-10-30T01:55:36;4.97;;;3.35;;
67065;SDS011;53978;43.846;25.952;2022-10-30T01:58:26;4.35;;;3.22;;
67065;SDS011;53978;43.846;25.952;2022-10-30T02:00:55;4.88;;;3.60;;
67065;SDS011;53978;43.846;25.952;2022-10-30T02:03:22;5.30;;;3.30;;
67065;SDS011;53978;43.846;25.952;2022-10-30T02:05:48;5.95;;;3.40;;
67065;SDS011;53978;43.846;25.952;2022-10-30T02:08:15;5.10;;;3.63;;
67065;SDS011;53978;43.846;25.952;2022-10-30T02:10:41;6.60;;;3.53;;
67065;SDS011;53978;43.846;25.952;2022-10-30T02:13:07;5.68;;;3.47;;
67065;SDS011;53978;43.846;25.952;2022-10-30T02:15:33;6.47;;;3.72;;
67065;SDS011;53978;43.846;25.952;2022-10-30T02:17:58;6.70;;;3.72;;
67065;SDS011;53978;43.846;25.952;2022-10-30T02:20:24;6.18;;;3.63;;
67065;SDS011;53978;43.846;25.952;2022-10-30T02:22:50;6.50;;;3.90;;
67065;SDS011;53978;43.846;25.952;2022-10-30T02:25:15;7.78;;;3.75;;
67065;SDS011;53978;43.846;25.952;2022-10-30T02:27:41;6.55;;;3.80;;
67065;SDS011;53978;43.846;25.952;2022-10-30T02:30:06;6.03;;;4.05;;
67065;SDS011;53978;43.846;25.952;2022-10-30T02:32:32;7.05;;;4.15;;
67065;SDS011;53978;43.846;25.952;2022-10-30T02:34:58;7.85;;;4.20;;
67065;SDS011;53978;43.846;25.952;2022-10-30T02:37:23;7.65;;;4.68;;
67065;SDS011;53978;43.846;25.952;2022-10-30T02:39:49;7.80;;;4.35;;
67065;SDS011;53978;43.846;25.952;2022-10-30T02:42:15;8.98;;;4.78;;
67065;SDS011;53978;43.846;25.952;2022-10-30T02:44:40;7.03;;;4.45;;
67065;SDS011;53978;43.846;25.952;2022-10-30T02:47:06;8.70;;;4.78;;
67065;SDS011;53978;43.846;25.952;2022-10-30T02:49:31;6.93;;;4.70;;
67065;SDS011;53978;43.846;25.952;2022-10-30T02:51:56;6.63;;;4.88;;
67065;SDS011;53978;43.846;25.952;2022-10-30T02:54:22;7.75;;;4.57;;
67065;SDS011;53978;43.846;25.952;2022-10-30T02:56:47;5.45;;;4.55;;
67065;SDS011;53978;43.846;25.952;2022-10-30T02:59:12;8.75;;;5.68;;
67065;SDS011;53978;43.846;25.952;2022-10-30T03:01:38;8.30;;;5.03;;
67065;SDS011;53978;43.846;25.952;2022-10-30T03:04:03;9.10;;;5.63;;
67065;SDS011;53978;43.846;25.952;2022-10-30T03:06:29;8.35;;;5.35;;
67065;SDS011;53978;43.846;25.952;2022-10-30T03:08:54;9.82;;;6.25;;
67065;SDS011;53978;43.846;25.952;2022-10-30T03:11:20;10.52;;;6.63;;
67065;SDS011;53978;43.846;25.952;2022-10-30T03:13:46;11.65;;;6.95;;
67065;SDS011;53978;43.846;25.952;2022-10-30T03:16:13;9.82;;;6.68;;
67065;SDS011;53978;43.846;25.952;2022-10-30T03:18:43;12.68;;;7.15;;
67065;SDS011;53978;43.846;25.952;2022-10-30T03:21:10;9.77;;;6.53;;
67065;SDS011;53978;43.846;25.952;2022-10-30T03:23:37;9.35;;;6.78;;
67065;SDS011;53978;43.846;25.952;2022-10-30T03:26:02;10.88;;;6.45;;
67065;SDS011;53978;43.846;25.952;2022-10-30T03:28:28;11.65;;;6.90;;
67065;SDS011;53978;43.846;25.952;2022-10-30T03:31:02;8.60;;;6.15;;
67065;SDS011;53978;43.846;25.952;2022-10-30T03:33:29;9.43;;;6.35;;
67065;SDS011;53978;43.846;25.952;2022-10-30T03:35:55;10.43;;;6.75;;
67065;SDS011;53978;43.846;25.952;2022-10-30T03:38:21;10.80;;;6.57;;
67065;SDS011;53978;43.846;25.952;2022-10-30T03:40:46;9.90;;;6.55;;
67065;SDS011;53978;43.846;25.952;2022-10-30T03:43:11;10.30;;;6.53;;
67065;SDS011;53978;43.846;25.952;2022-10-30T03:45:37;11.05;;;6.13;;
67065;SDS011;53978;43.846;25.952;2022-10-30T03:48:03;10.85;;;6.82;;
67065;SDS011;53978;43.846;25.952;2022-10-30T03:50:29;10.05;;;5.97;;
67065;SDS011;53978;43.846;25.952;2022-10-30T03:52:56;9.05;;;5.95;;
67065;SDS011;53978;43.846;25.952;2022-10-30T03:55:22;8.82;;;6.13;;
67065;SDS011;53978;43.846;25.952;2022-10-30T03:57:47;9.65;;;6.20;;
67065;SDS011;53978;43.846;25.952;2022-10-30T04:00:13;11.25;;;6.50;;
67065;SDS011;53978;43.846;25.952;2022-10-30T04:02:43;8.88;;;6.25;;
67065;SDS011;53978;43.846;25.952;2022-10-30T04:05:12;12.48;;;6.30;;
67065;SDS011;53978;43.846;25.952;2022-10-30T04:07:38;9.35;;;6.38;;
67065;SDS011;53978;43.846;25.952;2022-10-30T04:10:04;10.13;;;6.70;;
67065;SDS011;53978;43.846;25.952;2022-10-30T04:12:29;11.18;;;6.93;;
67065;SDS011;53978;43.846;25.952;2022-10-30T04:14:55;9.93;;;6.20;;
67065;SDS011;53978;43.846;25.952;2022-10-30T04:17:20;9.23;;;6.53;;
67065;SDS011;53978;43.846;25.952;2022-10-30T04:19:46;8.32;;;6.25;;
67065;SDS011;53978;43.846;25.952;2022-10-30T04:22:11;8.18;;;5.85;;
67065;SDS011;53978;43.846;25.952;2022-10-30T04:24:37;11.82;;;6.07;;
67065;SDS011;53978;43.846;25.952;2022-10-30T04:27:03;13.05;;;5.78;;
67065;SDS011;53978;43.846;25.952;2022-10-30T04:29:29;10.27;;;6.13;;
67065;SDS011;53978;43.846;25.952;2022-10-30T04:31:54;9.90;;;5.88;;
67065;SDS011;53978;43.846;25.952;2022-10-30T04:34:20;8.88;;;5.75;;
67065;SDS011;53978;43.846;25.952;2022-10-30T04:36:45;8.45;;;6.00;;
67065;SDS011;53978;43.846;25.952;2022-10-30T04:39:10;10.00;;;5.70;;
67065;SDS011;53978;43.846;25.952;2022-10-30T04:41:36;10.25;;;6.20;;
67065;SDS011;53978;43.846;25.952;2022-10-30T04:44:01;10.93;;;6.20;;
67065;SDS011;53978;43.846;25.952;2022-10-30T04:46:27;7.82;;;5.90;;
67065;SDS011;53978;43.846;25.952;2022-10-30T04:48:53;8.23;;;5.75;;
67065;SDS011;53978;43.846;25.952;2022-10-30T04:51:18;9.75;;;6.10;;
67065;SDS011;53978;43.846;25.952;2022-10-30T04:53:43;7.57;;;5.53;;
67065;SDS011;53978;43.846;25.952;2022-10-30T04:56:09;9.40;;;5.60;;
67065;SDS011;53978;43.846;25.952;2022-10-30T04:58:34;7.85;;;5.47;;
67065;SDS011;53978;43.846;25.952;2022-10-30T05:01:03;8.13;;;4.78;;
67065;SDS011;53978;43.846;25.952;2022-10-30T05:03:29;8.68;;;5.78;;
67065;SDS011;53978;43.846;25.952;2022-10-30T05:06:18;9.30;;;5.88;;
67065;SDS011;53978;43.846;25.952;2022-10-30T05:08:47;7.57;;;5.55;;
67065;SDS011;53978;43.846;25.952;2022-10-30T05:11:13;8.57;;;5.35;;
67065;SDS011;53978;43.846;25.952;2022-10-30T05:13:39;6.57;;;5.03;;
67065;SDS011;53978;43.846;25.952;2022-10-30T05:16:04;9.05;;;5.72;;
67065;SDS011;53978;43.846;25.952;2022-10-30T05:18:30;9.32;;;5.78;;
67065;SDS011;53978;43.846;25.952;2022-10-30T05:20:55;8.52;;;5.63;;
67065;SDS011;53978;43.846;25.952;2022-10-30T05:23:21;9.48;;;5.82;;
67065;SDS011;53978;43.846;25.952;2022-10-30T05:25:46;11.02;;;5.53;;
67065;SDS011;53978;43.846;25.952;2022-10-30T05:28:12;7.95;;;5.18;;
67065;SDS011;53978;43.846;25.952;2022-10-30T05:30:37;6.72;;;5.03;;
67065;SDS011;53978;43.846;25.952;2022-10-30T05:33:04;11.13;;;5.32;;
67065;SDS011;53978;43.846;25.952;2022-10-30T05:35:31;11.30;;;4.97;;
67065;SDS011;53978;43.846;25.952;2022-10-30T05:37:58;7.45;;;5.15;;
67065;SDS011;53978;43.846;25.952;2022-10-30T05:40:23;9.38;;;5.32;;
67065;SDS011;53978;43.846;25.952;2022-10-30T05:42:49;8.25;;;5.47;;
67065;SDS011;53978;43.846;25.952;2022-10-30T05:45:15;8.90;;;5.50;;
67065;SDS011;53978;43.846;25.952;2022-10-30T05:47:40;10.93;;;5.25;;
67065;SDS011;53978;43.846;25.952;2022-10-30T05:50:06;7.47;;;4.97;;
67065;SDS011;53978;43.846;25.952;2022-10-30T05:52:32;7.05;;;4.78;;
67065;SDS011;53978;43.846;25.952;2022-10-30T05:54:58;6.18;;;4.50;;
67065;SDS011;53978;43.846;25.952;2022-10-30T05:57:23;10.25;;;5.20;;
67065;SDS011;53978;43.846;25.952;2022-10-30T05:59:49;6.55;;;4.57;;
67065;SDS011;53978;43.846;25.952;2022-10-30T06:02:17;6.95;;;4.75;;
67065;SDS011;53978;43.846;25.952;2022-10-30T06:04:42;8.70;;;4.50;;
67065;SDS011;53978;43.846;25.952;2022-10-30T06:07:09;7.90;;;4.68;;
67065;SDS011;53978;43.846;25.952;2022-10-30T06:09:35;7.35;;;4.60;;
67065;SDS011;53978;43.846;25.952;2022-10-30T06:12:00;5.57;;;4.25;;
67065;SDS011;53978;43.846;25.952;2022-10-30T06:14:25;6.80;;;4.65;;
67065;SDS011;53978;43.846;25.952;2022-10-30T06:16:51;5.32;;;4.20;;
67065;SDS011;53978;43.846;25.952;2022-10-30T06:19:16;7.18;;;4.35;;
67065;SDS011;53978;43.846;25.952;2022-10-30T06:21:41;7.28;;;4.38;;
67065;SDS011;53978;43.846;25.952;2022-10-30T06:24:07;5.72;;;3.92;;
67065;SDS011;53978;43.846;25.952;2022-10-30T06:26:32;9.98;;;4.22;;
67065;SDS011;53978;43.846;25.952;2022-10-30T06:28:58;6.45;;;4.05;;
67065;SDS011;53978;43.846;25.952;2022-10-30T06:31:23;7.22;;;4.05;;
67065;SDS011;53978;43.846;25.952;2022-10-30T06:33:48;5.65;;;4.38;;
67065;SDS011;53978;43.846;25.952;2022-10-30T06:36:14;7.28;;;4.50;;
67065;SDS011;53978;43.846;25.952;2022-10-30T06:38:41;7.28;;;4.18;;
67065;SDS011;53978;43.846;25.952;2022-10-30T06:41:07;6.22;;;4.13;;
67065;SDS011;53978;43.846;25.952;2022-10-30T06:43:32;10.15;;;4.65;;
67065;SDS011;53978;43.846;25.952;2022-10-30T06:45:58;6.25;;;4.75;;
67065;SDS011;53978;43.846;25.952;2022-10-30T06:48:23;6.72;;;4.90;;
67065;SDS011;53978;43.846;25.952;2022-10-30T06:50:52;8.70;;;5.70;;
67065;SDS011;53978;43.846;25.952;2022-10-30T06:53:21;9.18;;;5.63;;
67065;SDS011;53978;43.846;25.952;2022-10-30T06:56:20;11.05;;;5.38;;
67065;SDS011;53978;43.846;25.952;2022-10-30T06:58:38;9.63;;;5.43;;
67065;SDS011;53978;43.846;25.952;2022-10-30T07:01:04;8.77;;;5.20;;
67065;SDS011;53978;43.846;25.952;2022-10-30T07:03:31;6.35;;;4.55;;
67065;SDS011;53978;43.846;25.952;2022-10-30T07:05:56;7.88;;;4.55;;
67065;SDS011;53978;43.846;25.952;2022-10-30T07:08:22;6.97;;;4.72;;
67065;SDS011;53978;43.846;25.952;2022-10-30T07:10:47;7.35;;;4.50;;
67065;SDS011;53978;43.846;25.952;2022-10-30T07:13:13;6.60;;;4.63;;
67065;SDS011;53978;43.846;25.952;2022-10-30T07:15:38;6.05;;;4.15;;
67065;SDS011;53978;43.846;25.952;2022-10-30T07:18:03;6.80;;;4.18;;
67065;SDS011;53978;43.846;25.952;2022-10-30T07:20:30;5.75;;;3.95;;
67065;SDS011;53978;43.846;25.952;2022-10-30T07:22:57;8.43;;;3.60;;
67065;SDS011;53978;43.846;25.952;2022-10-30T07:25:22;7.65;;;3.90;;
67065;SDS011;53978;43.846;25.952;2022-10-30T07:27:49;11.82;;;3.55;;
67065;SDS011;53978;43.846;25.952;2022-10-30T07:30:16;10.35;;;4.05;;
67065;SDS011;53978;43.846;25.952;2022-10-30T07:32:43;5.07;;;3.60;;
67065;SDS011;53978;43.846;25.952;2022-10-30T07:35:10;6.18;;;4.05;;
67065;SDS011;53978;43.846;25.952;2022-10-30T07:37:37;5.65;;;3.47;;
67065;SDS011;53978;43.846;25.952;2022-10-30T07:40:02;4.47;;;3.53;;
67065;SDS011;53978;43.846;25.952;2022-10-30T07:42:28;5.53;;;3.67;;
67065;SDS011;53978;43.846;25.952;2022-10-30T07:44:53;6.10;;;3.90;;
67065;SDS011;53978;43.846;25.952;2022-10-30T07:47:19;11.02;;;3.97;;
67065;SDS011;53978;43.846;25.952;2022-10-30T07:49:44;12.75;;;3.83;;
67065;SDS011;53978;43.846;25.952;2022-10-30T07:52:09;12.27;;;4.10;;
67065;SDS011;53978;43.846;25.952;2022-10-30T07:54:38;17.40;;;4.80;;
67065;SDS011;53978;43.846;25.952;2022-10-30T07:57:03;12.75;;;4.43;;
67065;SDS011;53978;43.846;25.952;2022-10-30T07:59:29;12.57;;;4.25;;
67065;SDS011;53978;43.846;25.952;2022-10-30T08:01:54;9.18;;;4.20;;
67065;SDS011;53978;43.846;25.952;2022-10-30T08:04:20;7.35;;;4.28;;
67065;SDS011;53978;43.846;25.952;2022-10-30T08:06:45;9.27;;;4.70;;
67065;SDS011;53978;43.846;25.952;2022-10-30T08:09:13;8.48;;;4.50;;
67065;SDS011;53978;43.846;25.952;2022-10-30T08:11:39;7.35;;;4.68;;
67065;SDS011;53978;43.846;25.952;2022-10-30T08:14:04;8.00;;;5.07;;
67065;SDS011;53978;43.846;25.952;2022-10-30T08:16:29;10.15;;;5.90;;
67065;SDS011;53978;43.846;25.952;2022-10-30T08:18:55;11.30;;;5.13;;
67065;SDS011;53978;43.846;25.952;2022-10-30T08:21:20;11.75;;;5.45;;
67065;SDS011;53978;43.846;25.952;2022-10-30T08:23:46;8.88;;;5.13;;
67065;SDS011;53978;43.846;25.952;2022-10-30T08:26:11;7.78;;;5.30;;
67065;SDS011;53978;43.846;25.952;2022-10-30T08:28:37;8.10;;;5.20;;
67065;SDS011;53978;43.846;25.952;2022-10-30T08:31:03;7.72;;;5.55;;
67065;SDS011;53978;43.846;25.952;2022-10-30T08:33:30;11.23;;;4.88;;
67065;SDS011;53978;43.846;25.952;2022-10-30T08:35:56;12.98;;;4.93;;
67065;SDS011;53978;43.846;25.952;2022-10-30T08:38:22;7.22;;;4.57;;
67065;SDS011;53978;43.846;25.952;2022-10-30T08:40:48;12.13;;;4.80;;
67065;SDS011;53978;43.846;25.952;2022-10-30T08:43:14;6.75;;;4.55;;
67065;SDS011;53978;43.846;25.952;2022-10-30T08:45:39;7.88;;;4.85;;
67065;SDS011;53978;43.846;25.952;2022-10-30T08:48:05;8.32;;;4.93;;
67065;SDS011;53978;43.846;25.952;2022-10-30T08:50:32;6.65;;;4.32;;
67065;SDS011;53978;43.846;25.952;2022-10-30T08:53:02;8.57;;;4.93;;
67065;SDS011;53978;43.846;25.952;2022-10-30T08:55:29;9.50;;;5.00;;
67065;SDS011;53978;43.846;25.952;2022-10-30T08:57:57;7.85;;;4.43;;
67065;SDS011;53978;43.846;25.952;2022-10-30T09:00:23;8.35;;;4.60;;
67065;SDS011;53978;43.846;25.952;2022-10-30T09:02:49;5.80;;;4.50;;
67065;SDS011;53978;43.846;25.952;2022-10-30T09:05:15;6.65;;;4.13;;
67065;SDS011;53978;43.846;25.952;2022-10-30T09:07:40;8.93;;;4.50;;
67065;SDS011;53978;43.846;25.952;2022-10-30T09:10:06;6.82;;;4.22;;
67065;SDS011;53978;43.846;25.952;2022-10-30T09:12:31;9.63;;;4.15;;
67065;SDS011;53978;43.846;25.952;2022-10-30T09:14:57;5.85;;;4.05;;
67065;SDS011;53978;43.846;25.952;2022-10-30T09:17:22;7.13;;;4.38;;
67065;SDS011;53978;43.846;25.952;2022-10-30T09:19:48;7.22;;;3.95;;
67065;SDS011;53978;43.846;25.952;2022-10-30T09:22:13;6.25;;;4.30;;
67065;SDS011;53978;43.846;25.952;2022-10-30T09:24:39;5.40;;;4.15;;
67065;SDS011;53978;43.846;25.952;2022-10-30T09:27:05;5.22;;;4.38;;
67065;SDS011;53978;43.846;25.952;2022-10-30T09:29:31;5.82;;;4.20;;
67065;SDS011;53978;43.846;25.952;2022-10-30T09:31:57;5.07;;;4.30;;
67065;SDS011;53978;43.846;25.952;2022-10-30T09:34:23;7.05;;;4.70;;
67065;SDS011;53978;43.846;25.952;2022-10-30T09:36:48;8.40;;;5.28;;
67065;SDS011;53978;43.846;25.952;2022-10-30T09:39:14;7.82;;;4.68;;
67065;SDS011;53978;43.846;25.952;2022-10-30T09:42:02;9.52;;;4.90;;
67065;SDS011;53978;43.846;25.952;2022-10-30T09:53:01;5.70;;;4.50;;
67065;SDS011;53978;43.846;25.952;2022-10-30T09:58:23;6.45;;;4.25;;
67065;SDS011;53978;43.846;25.952;2022-10-30T10:00:59;5.22;;;4.30;;
67065;SDS011;53978;43.846;25.952;2022-10-30T10:03:40;8.30;;;4.45;;
67065;SDS011;53978;43.846;25.952;2022-10-30T10:06:11;8.85;;;4.22;;
67065;SDS011;53978;43.846;25.952;2022-10-30T10:08:41;5.93;;;4.50;;
67065;SDS011;53978;43.846;25.952;2022-10-30T10:11:15;9.95;;;4.72;;
67065;SDS011;53978;43.846;25.952;2022-10-30T10:13:48;8.75;;;4.75;;
67065;SDS011;53978;43.846;25.952;2022-10-30T10:16:17;5.95;;;4.30;;
67065;SDS011;53978;43.846;25.952;2022-10-30T10:19:03;7.80;;;4.35;;
67065;SDS011;53978;43.846;25.952;2022-10-30T10:21:31;7.78;;;4.20;;
67065;SDS011;53978;43.846;25.952;2022-10-30T10:24:01;9.70;;;4.60;;
67065;SDS011;53978;43.846;25.952;2022-10-30T10:26:46;6.53;;;4.57;;
67065;SDS011;53978;43.846;25.952;2022-10-30T10:42:18;6.88;;;4.35;;
67065;SDS011;53978;43.846;25.952;2022-10-30T10:50:51;5.07;;;3.63;;
67065;SDS011;53978;43.846;25.952;2022-10-30T10:53:45;6.78;;;4.25;;
67065;SDS011;53978;43.846;25.952;2022-10-30T10:56:18;8.85;;;4.10;;
67065;SDS011;53978;43.846;25.952;2022-10-30T10:58:53;7.82;;;4.07;;
67065;SDS011;53978;43.846;25.952;2022-10-30T11:01:21;6.35;;;3.85;;
67065;SDS011;53978;43.846;25.952;2022-10-30T11:04:13;7.78;;;3.92;;
67065;SDS011;53978;43.846;25.952;2022-10-30T11:06:48;5.78;;;4.40;;
67065;SDS011;53978;43.846;25.952;2022-10-30T11:09:19;8.43;;;4.30;;
67065;SDS011;53978;43.846;25.952;2022-10-30T11:11:47;6.80;;;3.55;;
67065;SDS011;53978;43.846;25.952;2022-10-30T11:14:14;7.00;;;3.90;;
67065;SDS011;53978;43.846;25.952;2022-10-30T11:19:31;9.00;;;3.75;;
67065;SDS011;53978;43.846;25.952;2022-10-30T11:21:57;5.95;;;3.45;;
67065;SDS011;53978;43.846;25.952;2022-10-30T11:24:33;4.68;;;3.53;;
67065;SDS011;53978;43.846;25.952;2022-10-30T11:32:26;8.82;;;3.53;;
67065;SDS011;53978;43.846;25.952;2022-10-30T11:35:10;6.30;;;3.45;;
67065;SDS011;53978;43.846;25.952;2022-10-30T11:37:40;5.18;;;3.40;;
67065;SDS011;53978;43.846;25.952;2022-10-30T11:42:36;5.82;;;3.20;;
67065;SDS011;53978;43.846;25.952;2022-10-30T11:45:04;4.00;;;3.15;;
67065;SDS011;53978;43.846;25.952;2022-10-30T11:47:34;10.55;;;3.50;;
67065;SDS011;53978;43.846;25.952;2022-10-30T11:50:01;5.15;;;3.70;;
67065;SDS011;53978;43.846;25.952;2022-10-30T11:52:28;7.57;;;3.33;;
67065;SDS011;53978;43.846;25.952;2022-10-30T11:55:12;7.32;;;3.15;;
67065;SDS011;53978;43.846;25.952;2022-10-30T11:57:43;6.95;;;3.40;;
67065;SDS011;53978;43.846;25.952;2022-10-30T12:00:18;4.22;;;3.08;;
67065;SDS011;53978;43.846;25.952;2022-10-30T12:02:46;3.35;;;3.05;;
67065;SDS011;53978;43.846;25.952;2022-10-30T12:07:50;4.85;;;2.95;;
67065;SDS011;53978;43.846;25.952;2022-10-30T12:10:26;4.20;;;3.03;;
67065;SDS011;53978;43.846;25.952;2022-10-30T12:12:53;9.48;;;3.20;;
67065;SDS011;53978;43.846;25.952;2022-10-30T12:15:19;4.57;;;3.28;;
67065;SDS011;53978;43.846;25.952;2022-10-30T12:17:51;6.38;;;3.05;;
67065;SDS011;53978;43.846;25.952;2022-10-30T12:20:22;5.45;;;3.53;;
67065;SDS011;53978;43.846;25.952;2022-10-30T12:22:48;3.08;;;2.78;;
67065;SDS011;53978;43.846;25.952;2022-10-30T12:25:24;8.00;;;3.20;;
67065;SDS011;53978;43.846;25.952;2022-10-30T12:28:04;5.13;;;3.47;;
67065;SDS011;53978;43.846;25.952;2022-10-30T12:30:32;5.50;;;3.30;;
67065;SDS011;53978;43.846;25.952;2022-10-30T12:33:09;4.07;;;3.38;;
67065;SDS011;53978;43.846;25.952;2022-10-30T12:35:41;13.43;;;3.83;;
67065;SDS011;53978;43.846;25.952;2022-10-30T12:38:16;10.70;;;4.38;;
67065;SDS011;53978;43.846;25.952;2022-10-30T12:43:26;6.25;;;4.25;;
67065;SDS011;53978;43.846;25.952;2022-10-30T12:45:54;5.70;;;3.20;;
67065;SDS011;53978;43.846;25.952;2022-10-30T12:48:45;5.05;;;3.10;;
67065;SDS011;53978;43.846;25.952;2022-10-30T12:51:22;3.70;;;3.00;;
67065;SDS011;53978;43.846;25.952;2022-10-30T12:57:14;4.38;;;3.15;;
67065;SDS011;53978;43.846;25.952;2022-10-30T13:04:54;4.10;;;3.45;;
67065;SDS011;53978;43.846;25.952;2022-10-30T13:10:10;5.40;;;3.53;;
67065;SDS011;53978;43.846;25.952;2022-10-30T13:12:39;4.07;;;3.20;;
67065;SDS011;53978;43.846;25.952;2022-10-30T13:15:11;4.43;;;3.00;;
67065;SDS011;53978;43.846;25.952;2022-10-30T13:17:42;4.95;;;3.33;;
67065;SDS011;53978;43.846;25.952;2022-10-30T13:20:11;3.72;;;3.08;;
67065;SDS011;53978;43.846;25.952;2022-10-30T13:22:44;4.18;;;2.92;;
67065;SDS011;53978;43.846;25.952;2022-10-30T13:27:52;5.22;;;3.00;;
67065;SDS011;53978;43.846;25.952;2022-10-30T13:30:21;5.38;;;2.88;;
67065;SDS011;53978;43.846;25.952;2022-10-30T13:35:37;4.65;;;2.97;;
67065;SDS011;53978;43.846;25.952;2022-10-30T13:38:18;3.65;;;2.90;;
67065;SDS011;53978;43.846;25.952;2022-10-30T13:43:50;6.75;;;2.72;;
67065;SDS011;53978;43.846;25.952;2022-10-30T13:49:46;6.97;;;2.67;;
67065;SDS011;53978;43.846;25.952;2022-10-30T13:52:36;2.83;;;2.55;;
67065;SDS011;53978;43.846;25.952;2022-10-30T13:57:41;3.80;;;2.85;;
67065;SDS011;53978;43.846;25.952;2022-10-30T14:10:47;4.05;;;2.72;;
67065;SDS011;53978;43.846;25.952;2022-10-30T14:15:40;5.80;;;3.03;;
67065;SDS011;53978;43.846;25.952;2022-10-30T14:20:39;6.38;;;3.40;;
67065;SDS011;53978;43.846;25.952;2022-10-30T14:23:07;4.53;;;3.08;;
67065;SDS011;53978;43.846;25.952;2022-10-30T14:25:38;4.28;;;3.00;;
67065;SDS011;53978;43.846;25.952;2022-10-30T14:28:03;6.88;;;2.95;;
67065;SDS011;53978;43.846;25.952;2022-10-30T14:30:29;3.00;;;2.70;;
67065;SDS011;53978;43.846;25.952;2022-10-30T14:32:58;5.28;;;3.40;;
67065;SDS011;53978;43.846;25.952;2022-10-30T14:35:28;5.80;;;3.95;;
67065;SDS011;53978;43.846;25.952;2022-10-30T14:37:57;7.45;;;4.07;;
67065;SDS011;53978;43.846;25.952;2022-10-30T14:43:55;4.18;;;3.55;;
67065;SDS011;53978;43.846;25.952;2022-10-30T14:46:33;9.90;;;3.50;;
67065;SDS011;53978;43.846;25.952;2022-10-30T14:52:16;5.18;;;3.10;;
67065;SDS011;53978;43.846;25.952;2022-10-30T14:57:21;6.70;;;3.60;;
67065;SDS011;53978;43.846;25.952;2022-10-30T14:59:48;8.88;;;3.30;;
67065;SDS011;53978;43.846;25.952;2022-10-30T15:15:00;4.25;;;3.40;;
67065;SDS011;53978;43.846;25.952;2022-10-30T15:19:58;6.25;;;3.72;;
67065;SDS011;53978;43.846;25.952;2022-10-30T15:22:25;7.07;;;4.05;;
67065;SDS011;53978;43.846;25.952;2022-10-30T15:24:51;8.60;;;4.63;;
67065;SDS011;53978;43.846;25.952;2022-10-30T15:27:17;9.80;;;4.28;;
67065;SDS011;53978;43.846;25.952;2022-10-30T15:29:51;11.57;;;4.20;;
67065;SDS011;53978;43.846;25.952;2022-10-30T15:32:20;6.00;;;3.75;;
67065;SDS011;53978;43.846;25.952;2022-10-30T15:37:19;5.40;;;3.67;;
67065;SDS011;53978;43.846;25.952;2022-10-30T15:39:45;5.25;;;3.80;;
67065;SDS011;53978;43.846;25.952;2022-10-30T15:42:10;10.60;;;5.88;;
67065;SDS011;53978;43.846;25.952;2022-10-30T15:44:37;8.23;;;5.88;;
67065;SDS011;53978;43.846;25.952;2022-10-30T15:47:15;15.98;;;6.30;;
67065;SDS011;53978;43.846;25.952;2022-10-30T15:49:48;23.08;;;9.13;;
67065;SDS011;53978;43.846;25.952;2022-10-30T15:52:17;17.45;;;9.00;;
67065;SDS011;53978;43.846;25.952;2022-10-30T15:54:54;16.13;;;8.90;;
67065;SDS011;53978;43.846;25.952;2022-10-30T15:57:25;14.00;;;8.32;;
67065;SDS011;53978;43.846;25.952;2022-10-30T15:59:54;17.67;;;9.27;;
67065;SDS011;53978;43.846;25.952;2022-10-30T16:02:21;23.38;;;8.63;;
67065;SDS011;53978;43.846;25.952;2022-10-30T16:04:48;18.45;;;9.00;;
67065;SDS011;53978;43.846;25.952;2022-10-30T16:07:15;24.63;;;10.23;;
67065;SDS011;53978;43.846;25.952;2022-10-30T16:09:53;28.05;;;10.98;;
67065;SDS011;53978;43.846;25.952;2022-10-30T16:12:30;22.02;;;12.60;;
67065;SDS011;53978;43.846;25.952;2022-10-30T16:14:57;26.08;;;13.32;;
67065;SDS011;53978;43.846;25.952;2022-10-30T16:17:26;31.55;;;14.32;;
67065;SDS011;53978;43.846;25.952;2022-10-30T16:19:55;34.45;;;15.10;;
67065;SDS011;53978;43.846;25.952;2022-10-30T16:22:26;25.83;;;13.75;;
67065;SDS011;53978;43.846;25.952;2022-10-30T16:24:53;17.48;;;11.80;;
67065;SDS011;53978;43.846;25.952;2022-10-30T16:27:20;24.98;;;11.35;;
67065;SDS011;53978;43.846;25.952;2022-10-30T16:29:51;27.23;;;11.32;;
67065;SDS011;53978;43.846;25.952;2022-10-30T16:32:19;18.63;;;10.70;;
67065;SDS011;53978;43.846;25.952;2022-10-30T16:34:46;23.75;;;10.50;;
67065;SDS011;53978;43.846;25.952;2022-10-30T16:37:13;20.25;;;10.63;;
67065;SDS011;53978;43.846;25.952;2022-10-30T16:39:42;27.40;;;12.35;;
67065;SDS011;53978;43.846;25.952;2022-10-30T16:42:17;35.78;;;16.63;;
67065;SDS011;53978;43.846;25.952;2022-10-30T16:44:44;48.58;;;24.33;;
67065;SDS011;53978;43.846;25.952;2022-10-30T16:49:45;45.60;;;21.67;;
67065;SDS011;53978;43.846;25.952;2022-10-30T16:52:15;40.10;;;20.85;;
67065;SDS011;53978;43.846;25.952;2022-10-30T16:54:48;36.35;;;17.90;;
67065;SDS011;53978;43.846;25.952;2022-10-30T16:57:29;29.25;;;15.70;;
67065;SDS011;53978;43.846;25.952;2022-10-30T16:59:59;35.22;;;13.50;;
67065;SDS011;53978;43.846;25.952;2022-10-30T17:02:26;25.50;;;12.93;;
67065;SDS011;53978;43.846;25.952;2022-10-30T17:07:59;21.17;;;11.45;;
67065;SDS011;53978;43.846;25.952;2022-10-30T17:10:32;28.42;;;11.45;;
67065;SDS011;53978;43.846;25.952;2022-10-30T17:18:48;21.35;;;10.18;;